createdAt,value
2017-11-19T00:00:18.410Z,9.31
2017-11-19T00:02:46.036Z,9.35
2017-11-19T00:05:13.732Z,9.35
2017-11-19T00:07:41.407Z,9.47
2017-11-19T00:10:09.165Z,9.48
2017-11-19T00:12:36.695Z,9.49
2017-11-19T00:15:04.299Z,9.43
2017-11-19T00:17:31.850Z,9.36
2017-11-19T00:19:59.655Z,9.31
2017-11-19T00:22:27.400Z,9.41
2017-11-19T00:24:54.987Z,9.48
2017-11-19T00:27:22.605Z,9.52
2017-11-19T00:29:50.266Z,9.56
2017-11-19T00:32:17.948Z,9.49
2017-11-19T00:34:45.465Z,9.64
2017-11-19T00:37:12.983Z,9.62
2017-11-19T00:39:40.645Z,9.57
2017-11-19T00:42:08.186Z,9.73
2017-11-19T00:44:35.750Z,9.69
2017-11-19T00:47:03.333Z,9.78
2017-11-19T00:49:30.850Z,9.86
2017-11-19T00:51:58.455Z,9.82
2017-11-19T00:54:26.073Z,9.74
2017-11-19T00:56:53.719Z,9.83
2017-11-19T00:59:21.317Z,9.84
2017-11-19T01:01:48.870Z,9.88
2017-11-19T01:04:16.379Z,9.85
2017-11-19T01:06:43.916Z,9.88
2017-11-19T01:09:11.495Z,9.78
2017-11-19T01:11:39.061Z,9.83
2017-11-19T01:14:06.676Z,9.70
2017-11-19T01:16:34.243Z,9.81
2017-11-19T01:19:01.788Z,9.69
2017-11-19T01:21:29.371Z,9.68
2017-11-19T01:23:57.011Z,9.68
2017-11-19T01:26:24.559Z,9.74
2017-11-19T01:28:52.076Z,9.72
2017-11-19T01:31:19.654Z,9.72
2017-11-19T01:33:47.199Z,9.67
2017-11-19T01:36:14.751Z,9.73
2017-11-19T01:38:42.345Z,9.69
2017-11-19T01:41:09.883Z,9.59
2017-11-19T01:43:37.476Z,9.65
2017-11-19T01:46:05.132Z,9.79
2017-11-19T01:48:32.664Z,9.85
2017-11-19T01:51:00.218Z,9.64
2017-11-19T01:53:27.826Z,9.66
2017-11-19T01:55:55.355Z,9.84
2017-11-19T01:58:22.889Z,9.82
2017-11-19T02:00:50.586Z,9.72
2017-11-19T02:03:18.164Z,9.61
2017-11-19T02:05:45.715Z,9.59
2017-11-19T02:08:13.363Z,9.65
2017-11-19T02:10:40.888Z,9.77
2017-11-19T02:13:08.451Z,9.74
2017-11-19T02:15:36.097Z,9.79
2017-11-19T02:18:03.735Z,9.84
2017-11-19T02:20:31.247Z,9.87
2017-11-19T02:22:58.839Z,10.02
2017-11-19T02:25:26.366Z,10.01
2017-11-19T02:27:53.891Z,9.84
2017-11-19T02:30:21.467Z,9.78
2017-11-19T02:32:49.003Z,9.83
2017-11-19T02:35:16.540Z,9.75
2017-11-19T02:37:44.184Z,9.65
2017-11-19T02:40:11.790Z,9.82
2017-11-19T02:42:39.322Z,9.61
2017-11-19T02:45:06.953Z,9.82
2017-11-19T02:47:34.508Z,9.69
2017-11-19T02:50:02.027Z,9.81
2017-11-19T02:52:29.604Z,9.81
2017-11-19T02:54:57.335Z,9.66
2017-11-19T02:57:24.883Z,9.61
2017-11-19T02:59:52.475Z,9.54
2017-11-19T03:02:20.146Z,9.61
2017-11-19T03:04:47.677Z,9.38
2017-11-19T03:07:15.219Z,9.59
2017-11-19T03:09:42.804Z,9.62
2017-11-19T03:12:10.411Z,9.67
2017-11-19T03:14:37.944Z,9.51
2017-11-19T03:17:05.507Z,9.65
2017-11-19T03:19:33.023Z,9.67
2017-11-19T03:22:00.530Z,9.74
2017-11-19T03:24:28.119Z,9.65
2017-11-19T03:26:55.694Z,9.54
2017-11-19T03:29:23.326Z,9.79
2017-11-19T03:31:50.947Z,9.65
2017-11-19T03:34:18.530Z,9.77
2017-11-19T03:36:46.094Z,9.74
2017-11-19T03:39:13.683Z,9.60
2017-11-19T03:41:41.220Z,9.46
2017-11-19T03:44:08.795Z,9.60
2017-11-19T03:46:36.399Z,9.60
2017-11-19T03:49:04.192Z,9.50
2017-11-19T03:51:31.703Z,9.59
2017-11-19T03:53:59.290Z,9.45
2017-11-19T03:56:26.865Z,9.47
2017-11-19T03:58:54.379Z,9.50
2017-11-19T04:01:22.001Z,9.56
2017-11-19T04:03:49.523Z,9.54
2017-11-19T04:06:17.205Z,9.53
2017-11-19T04:08:44.798Z,9.37
2017-11-19T04:11:12.323Z,9.47
2017-11-19T04:13:39.884Z,9.35
2017-11-19T04:16:07.480Z,9.33
2017-11-19T04:18:35.071Z,9.42
2017-11-19T04:21:02.648Z,9.33
2017-11-19T04:23:30.236Z,9.50
2017-11-19T04:25:57.845Z,9.16
2017-11-19T04:28:25.427Z,9.28
2017-11-19T04:30:53.161Z,9.30
2017-11-19T04:33:20.685Z,9.19
2017-11-19T04:35:48.229Z,9.07
2017-11-19T04:38:15.816Z,8.94
2017-11-19T04:40:43.564Z,8.91
2017-11-19T04:43:11.117Z,9.01
2017-11-19T04:45:38.706Z,9.00
2017-11-19T04:48:06.275Z,9.07
2017-11-19T04:50:33.818Z,9.10
2017-11-19T04:53:01.392Z,9.09
2017-11-19T04:55:28.923Z,8.98
2017-11-19T04:57:56.455Z,8.86
2017-11-19T05:00:24.108Z,8.84
2017-11-19T05:02:51.691Z,8.95
2017-11-19T05:05:19.317Z,8.87
2017-11-19T05:07:46.905Z,8.79
2017-11-19T05:10:14.440Z,8.77
2017-11-19T05:12:41.987Z,8.85
2017-11-19T05:15:09.644Z,8.76
2017-11-19T05:17:37.244Z,8.68
2017-11-19T05:20:04.797Z,8.70
2017-11-19T05:22:32.399Z,8.47
2017-11-19T05:24:59.968Z,8.58
2017-11-19T05:27:27.490Z,8.56
2017-11-19T05:29:55.066Z,8.67
2017-11-19T05:32:22.723Z,8.57
2017-11-19T05:34:50.253Z,8.63
2017-11-19T05:37:17.788Z,8.62
2017-11-19T05:39:45.382Z,8.43
2017-11-19T05:42:12.916Z,8.53
2017-11-19T05:44:40.513Z,8.56
2017-11-19T05:47:08.087Z,8.53
2017-11-19T05:49:35.646Z,8.58
2017-11-19T05:52:03.265Z,8.55
2017-11-19T05:54:30.863Z,8.63
2017-11-19T05:56:58.390Z,8.71
2017-11-19T05:59:26.187Z,8.59
2017-11-19T06:01:53.802Z,8.51
2017-11-19T06:04:21.394Z,8.60
2017-11-19T06:06:49.163Z,8.53
2017-11-19T06:09:16.878Z,8.56
2017-11-19T06:11:44.632Z,8.61
2017-11-19T06:14:12.367Z,8.57
2017-11-19T06:16:40.011Z,8.71
2017-11-19T06:19:07.564Z,8.70
2017-11-19T06:21:36.041Z,8.78
2017-11-19T06:24:04.119Z,8.84
2017-11-19T06:26:31.910Z,8.74
2017-11-19T06:28:59.717Z,8.79
2017-11-19T06:31:27.483Z,8.80
2017-11-19T06:33:55.082Z,8.80
2017-11-19T06:36:22.654Z,8.85
2017-11-19T06:38:50.267Z,8.89
2017-11-19T06:41:19.349Z,8.87
2017-11-19T06:43:46.965Z,8.84
2017-11-19T06:46:15.368Z,8.78
2017-11-19T06:49:07.727Z,8.82
2017-11-19T06:51:36.158Z,8.78
2017-11-19T06:54:04.131Z,8.92
2017-11-19T06:56:31.817Z,8.76
2017-11-19T06:58:59.475Z,8.94
2017-11-19T07:01:27.056Z,9.10
2017-11-19T07:03:54.881Z,9.11
2017-11-19T07:06:22.765Z,9.23
2017-11-19T07:08:51.261Z,9.13
2017-11-19T07:11:18.878Z,9.23
2017-11-19T07:13:46.615Z,9.34
2017-11-19T07:16:14.292Z,9.43
2017-11-19T07:18:42.556Z,9.41
2017-11-19T07:21:10.095Z,9.45
2017-11-19T07:23:37.658Z,9.43
2017-11-19T07:26:05.444Z,9.45
2017-11-19T07:28:33.364Z,9.40
2017-11-19T07:31:01.543Z,9.62
2017-11-19T07:33:29.211Z,9.53
2017-11-19T07:35:57.032Z,9.51
2017-11-19T07:38:24.703Z,9.60
2017-11-19T07:40:52.534Z,10.05
2017-11-19T07:43:20.477Z,10.23
2017-11-19T07:45:48.155Z,10.22
2017-11-19T07:48:15.964Z,10.29
2017-11-19T07:50:43.999Z,10.76
2017-11-19T07:53:11.627Z,10.48
2017-11-19T07:55:39.270Z,11.08
2017-11-19T07:58:06.905Z,10.88
2017-11-19T08:00:34.570Z,10.84
2017-11-19T08:03:02.243Z,11.08
2017-11-19T08:05:29.862Z,11.11
2017-11-19T08:07:58.238Z,10.98
2017-11-19T08:10:25.871Z,11.12
2017-11-19T08:12:53.650Z,11.09
2017-11-19T08:15:22.803Z,10.96
2017-11-19T08:21:28.269Z,10.93
2017-11-19T08:24:00.345Z,11.05
2017-11-19T08:40:03.350Z,11.96
2017-11-19T08:42:31.077Z,11.77
2017-11-19T08:44:59.400Z,11.96
2017-11-19T08:47:28.379Z,11.47
2017-11-19T08:49:56.074Z,11.38
2017-11-19T08:52:23.840Z,11.30
2017-11-19T08:54:51.471Z,11.08
2017-11-19T08:57:20.062Z,10.98
2017-11-19T08:59:47.899Z,10.89
2017-11-19T09:02:15.659Z,10.85
2017-11-19T09:04:43.204Z,10.75
2017-11-19T09:07:11.110Z,10.66
2017-11-19T09:09:38.684Z,10.62
2017-11-19T09:12:07.095Z,10.60
2017-11-19T09:14:34.860Z,10.62
2017-11-19T09:17:02.447Z,10.47
2017-11-19T09:19:30.025Z,10.62
2017-11-19T09:21:57.651Z,10.56
2017-11-19T09:24:26.463Z,10.54
2017-11-19T09:26:54.467Z,10.46
2017-11-19T09:29:22.090Z,10.32
2017-11-19T09:31:49.770Z,10.38
2017-11-19T09:34:18.905Z,10.31
2017-11-19T09:36:46.697Z,10.53
2017-11-19T09:39:14.621Z,10.17
2017-11-19T09:41:46.085Z,10.55
2017-11-19T09:44:13.759Z,10.53
2017-11-19T09:46:42.785Z,10.50
2017-11-19T09:49:11.280Z,10.46
2017-11-19T09:51:38.866Z,10.52
2017-11-19T09:54:08.534Z,10.71
2017-11-19T09:56:36.228Z,10.71
2017-11-19T09:59:05.907Z,10.74
2017-11-19T10:01:33.663Z,10.66
2017-11-19T10:04:01.337Z,10.63
2017-11-19T10:06:29.457Z,10.49
2017-11-19T10:08:57.914Z,10.53
2017-11-19T10:11:25.816Z,10.67
2017-11-19T10:13:54.351Z,10.83
2017-11-19T10:16:22.014Z,10.62
2017-11-19T10:18:49.627Z,10.50
2017-11-19T10:21:17.281Z,10.57
2017-11-19T10:23:44.996Z,10.55
2017-11-19T10:26:12.879Z,10.55
2017-11-19T10:28:43.113Z,10.70
2017-11-19T10:31:11.884Z,10.53
2017-11-19T10:36:15.508Z,10.58
2017-11-19T10:38:44.075Z,10.49
2017-11-19T10:41:11.716Z,10.49
2017-11-19T10:43:39.539Z,10.54
2017-11-19T10:46:07.116Z,10.56
2017-11-19T10:48:36.649Z,10.71
2017-11-19T10:51:08.973Z,10.85
2017-11-19T10:53:37.063Z,10.70
2017-11-19T10:56:05.382Z,10.83
2017-11-19T10:58:39.191Z,10.95
2017-11-19T11:01:08.119Z,10.62
2017-11-19T11:03:35.752Z,10.62
2017-11-19T11:06:05.311Z,10.57
2017-11-19T11:08:33.076Z,10.28
2017-11-19T11:11:01.839Z,10.45
2017-11-19T11:13:32.104Z,10.50
2017-11-19T11:19:16.337Z,10.49
2017-11-19T11:21:43.959Z,10.59
2017-11-19T11:24:16.599Z,10.69
2017-11-19T11:26:46.111Z,10.58
2017-11-19T11:29:13.734Z,10.55
2017-11-19T11:31:41.553Z,10.52
2017-11-19T11:34:09.254Z,10.53
2017-11-19T11:36:36.913Z,10.49
2017-11-19T11:39:04.561Z,10.46
2017-11-19T11:41:32.140Z,10.60
2017-11-19T11:44:00.608Z,10.45
2017-11-19T11:46:28.289Z,10.40
2017-11-19T11:48:56.002Z,10.15
2017-11-19T11:51:23.608Z,10.10
2017-11-19T11:53:51.216Z,10.19
2017-11-19T11:56:18.935Z,10.29
2017-11-19T11:58:46.556Z,10.37
2017-11-19T12:01:14.598Z,10.03
2017-11-19T12:03:42.187Z,10.27
2017-11-19T12:06:09.791Z,10.34
2017-11-19T12:08:37.428Z,10.33
2017-11-19T12:11:10.350Z,10.43
2017-11-19T12:13:38.015Z,10.36
2017-11-19T12:16:05.577Z,10.20
2017-11-19T12:18:33.119Z,9.75
2017-11-19T12:21:01.729Z,9.99
2017-11-19T12:23:32.296Z,10.10
2017-11-19T12:26:00.073Z,9.98
2017-11-19T12:28:28.945Z,10.04
2017-11-19T12:30:56.913Z,9.97
2017-11-19T12:33:24.496Z,9.98
2017-11-19T12:35:53.087Z,9.97
2017-11-19T12:38:20.687Z,10.02
2017-11-19T12:40:55.282Z,10.12
2017-11-19T12:43:22.882Z,10.08
2017-11-19T12:45:51.134Z,9.85
2017-11-19T12:48:20.772Z,9.81
2017-11-19T12:50:48.538Z,9.61
2017-11-19T12:53:18.888Z,9.83
2017-11-19T12:56:07.724Z,9.75
2017-11-19T12:58:38.431Z,9.90
2017-11-19T13:01:06.070Z,11.37
2017-11-19T13:03:34.394Z,12.36
2017-11-19T13:06:02.199Z,11.86
2017-11-19T13:08:29.804Z,11.13
2017-11-19T13:10:57.507Z,11.06
2017-11-19T13:13:25.093Z,10.73
2017-11-19T13:15:52.706Z,10.76
2017-11-19T13:18:20.341Z,10.53
2017-11-19T13:20:52.783Z,10.46
2017-11-19T13:23:20.859Z,10.18
2017-11-19T13:25:50.442Z,10.36
2017-11-19T13:28:18.033Z,10.46
2017-11-19T13:30:45.733Z,10.33
2017-11-19T13:33:13.846Z,10.13
2017-11-19T13:35:41.403Z,11.35
2017-11-19T13:38:09.061Z,10.87
2017-11-19T13:40:36.636Z,10.59
2017-11-19T13:43:06.061Z,10.39
2017-11-19T13:45:33.731Z,10.32
2017-11-19T13:48:01.344Z,10.19
2017-11-19T13:50:29.256Z,10.22
2017-11-19T13:52:56.844Z,10.21
2017-11-19T13:55:24.809Z,10.17
2017-11-19T13:57:52.585Z,10.12
2017-11-19T14:00:20.289Z,9.98
2017-11-19T14:02:47.852Z,10.07
2017-11-19T14:05:16.376Z,9.92
2017-11-19T14:07:46.219Z,10.17
2017-11-19T14:10:15.130Z,9.97
2017-11-19T14:12:44.940Z,10.04
2017-11-19T14:15:14.981Z,9.79
2017-11-19T14:17:44.999Z,9.78
2017-11-19T14:20:14.300Z,9.69
2017-11-19T14:22:43.128Z,9.72
2017-11-19T14:25:11.116Z,9.81
2017-11-19T14:27:41.240Z,9.85
2017-11-19T14:30:13.527Z,9.87
2017-11-19T14:32:47.729Z,9.81
2017-11-19T14:35:16.839Z,9.83
2017-11-19T14:37:55.107Z,9.75
2017-11-19T14:40:25.282Z,9.79
2017-11-19T14:42:54.397Z,10.47
2017-11-19T14:45:23.066Z,10.05
2017-11-19T14:47:53.249Z,10.76
2017-11-19T14:50:21.858Z,10.53
2017-11-19T14:52:51.058Z,10.31
2017-11-19T14:55:21.000Z,10.18
2017-11-19T14:57:51.014Z,10.37
2017-11-19T15:00:20.324Z,10.19
2017-11-19T15:02:51.535Z,10.24
2017-11-19T15:05:22.814Z,9.99
2017-11-19T15:07:58.055Z,9.92
2017-11-19T15:10:29.574Z,9.83
2017-11-19T15:12:59.367Z,9.85
2017-11-19T15:15:30.436Z,9.72
2017-11-19T15:17:58.740Z,9.71
2017-11-19T15:20:29.250Z,9.25
2017-11-19T15:22:58.046Z,9.54
2017-11-19T15:25:34.457Z,9.23
2017-11-19T15:28:04.393Z,9.47
2017-11-19T15:30:34.145Z,9.35
2017-11-19T15:33:03.908Z,9.37
2017-11-19T15:35:33.649Z,9.34
2017-11-19T15:38:04.129Z,9.35
2017-11-19T15:40:33.010Z,9.23
2017-11-19T15:43:02.525Z,9.10
2017-11-19T15:45:32.178Z,9.09
2017-11-19T15:48:04.588Z,9.28
2017-11-19T15:50:36.090Z,9.33
2017-11-19T15:53:19.876Z,9.46
2017-11-19T15:56:05.232Z,9.27
2017-11-19T15:58:36.144Z,9.52
2017-11-19T16:01:04.092Z,9.35
2017-11-19T16:03:31.789Z,9.05
2017-11-19T16:05:59.906Z,9.19
2017-11-19T16:08:47.579Z,9.26
2017-11-19T16:14:44.322Z,9.02
2017-11-19T16:17:13.235Z,9.03
2017-11-19T16:19:40.809Z,9.14
2017-11-19T16:22:08.413Z,8.80
2017-11-19T16:24:36.009Z,8.73
2017-11-19T16:27:08.122Z,8.83
2017-11-19T16:29:35.832Z,8.78
2017-11-19T16:32:04.618Z,8.94
2017-11-19T16:34:32.261Z,8.76
2017-11-19T16:36:59.921Z,8.87
2017-11-19T16:39:27.779Z,8.76
2017-11-19T16:41:55.589Z,8.98
2017-11-19T16:44:23.505Z,9.07
2017-11-19T16:46:54.067Z,9.61
2017-11-19T16:49:21.754Z,9.57
2017-11-19T16:51:49.623Z,9.30
2017-11-19T16:54:18.562Z,9.67
2017-11-19T16:56:48.098Z,9.55
2017-11-19T16:59:16.147Z,9.50
2017-11-19T17:01:43.906Z,9.35
2017-11-19T17:04:11.564Z,9.47
2017-11-19T17:06:43.559Z,9.22
2017-11-19T17:09:11.157Z,9.36
2017-11-19T17:11:40.393Z,9.20
2017-11-19T17:14:08.117Z,9.15
2017-11-19T17:16:35.792Z,9.06
2017-11-19T17:19:03.386Z,9.10
2017-11-19T17:21:34.279Z,9.01
2017-11-19T17:24:02.168Z,9.14
2017-11-19T17:26:30.271Z,9.23
2017-11-19T17:28:57.923Z,9.33
2017-11-19T17:31:25.578Z,9.76
2017-11-19T17:33:53.174Z,9.33
2017-11-19T17:36:26.404Z,9.50
2017-11-19T17:41:31.101Z,9.48
2017-11-19T17:43:58.707Z,9.04
2017-11-19T17:46:27.536Z,9.32
2017-11-19T17:48:55.732Z,9.45
2017-11-19T17:51:23.329Z,9.59
2017-11-19T17:54:09.360Z,9.50
2017-11-19T18:14:38.796Z,9.35
2017-11-19T18:17:08.763Z,9.82
2017-11-19T18:19:37.284Z,10.02
2017-11-19T18:22:15.110Z,9.82
2017-11-19T18:24:45.826Z,9.61
2017-11-19T18:27:16.981Z,9.81
2017-11-19T18:29:49.510Z,9.68
2017-11-19T18:32:17.155Z,9.72
2017-11-19T18:34:45.032Z,9.90
2017-11-19T18:37:25.146Z,9.75
2017-11-19T18:39:53.341Z,9.63
2017-11-19T18:42:33.052Z,9.46
2017-11-19T18:47:58.748Z,9.61
2017-11-19T18:50:35.070Z,9.38
2017-11-19T18:56:48.799Z,9.54
2017-11-19T18:59:16.760Z,9.49
2017-11-19T19:01:44.498Z,9.63
2017-11-19T19:04:12.964Z,9.44
2017-11-19T19:06:40.610Z,9.44
2017-11-19T19:09:08.319Z,9.40
2017-11-19T19:11:35.918Z,9.51
2017-11-19T19:14:03.688Z,9.38
2017-11-19T19:16:31.448Z,9.17
2017-11-19T19:18:59.303Z,9.37
2017-11-19T19:25:05.829Z,9.32
2017-11-19T19:27:40.760Z,8.98
2017-11-19T19:30:10.549Z,9.16
2017-11-19T19:32:39.875Z,9.17
2017-11-19T19:35:07.532Z,9.35
2017-11-19T19:37:35.843Z,9.12
2017-11-19T19:40:19.573Z,8.93
2017-11-19T19:42:50.860Z,8.96
2017-11-19T19:45:18.530Z,8.76
2017-11-19T19:58:20.247Z,8.79
2017-11-19T20:00:51.875Z,8.81
2017-11-19T20:03:22.065Z,8.73
2017-11-19T20:44:29.325Z,7.27
2017-11-19T20:46:58.788Z,7.12
2017-11-19T20:49:28.955Z,7.14
2017-11-19T20:51:57.646Z,6.88
2017-11-19T20:54:27.471Z,6.61
2017-11-19T20:56:55.141Z,6.60
2017-11-19T20:59:24.600Z,6.54
2017-11-19T21:01:54.001Z,6.41
2017-11-19T21:04:23.736Z,6.22
2017-11-19T21:06:53.700Z,6.22
2017-11-19T21:09:32.873Z,6.12
2017-11-19T21:12:01.652Z,5.95
2017-11-19T21:14:33.699Z,5.78
2017-11-19T21:17:01.847Z,5.70
2017-11-19T21:19:41.694Z,5.91
2017-11-19T21:22:25.888Z,5.90
2017-11-19T21:24:56.513Z,5.89
2017-11-19T21:27:24.195Z,6.02
2017-11-19T21:29:53.094Z,5.90
2017-11-19T21:32:23.905Z,5.81
2017-11-19T21:34:54.789Z,5.83
2017-11-19T21:37:24.651Z,5.75
2017-11-19T21:39:55.533Z,5.73
2017-11-19T21:45:09.746Z,5.73
2017-11-19T22:36:35.819Z,5.31
2017-11-19T22:46:12.893Z,5.14
2017-11-19T22:48:43.046Z,5.20
2017-11-19T22:51:21.361Z,5.15
2017-11-19T23:00:47.394Z,4.66
2017-11-19T23:03:32.826Z,4.88
2017-11-19T23:10:00.832Z,4.90
2017-11-19T23:12:30.348Z,4.95
2017-11-19T23:14:59.804Z,4.87
2017-11-19T23:24:29.947Z,4.88
2017-11-19T23:27:07.440Z,4.61
2017-11-19T23:29:36.168Z,4.42
2017-11-19T23:32:05.132Z,4.78
2017-11-19T23:34:34.851Z,4.69
2017-11-19T23:47:48.264Z,4.78
2017-11-19T23:50:32.898Z,4.83
